createdAt,value
2018-08-31T00:01:05.046Z,14.90
2018-08-31T00:03:46.074Z,14.67
2018-08-31T00:06:41.023Z,13.93
2018-08-31T00:09:34.809Z,14.13
2018-08-31T00:17:28.286Z,13.57
2018-08-31T00:19:59.661Z,20.20
2018-08-31T00:22:29.069Z,15.87
2018-08-31T00:25:11.013Z,16.27
2018-08-31T00:27:51.070Z,17.13
2018-08-31T00:30:31.251Z,19.00
2018-08-31T00:33:12.265Z,17.53
2018-08-31T00:38:52.878Z,17.70
2018-08-31T00:41:40.996Z,16.03
2018-08-31T00:45:32.186Z,18.63
2018-08-31T00:48:01.996Z,17.13
2018-08-31T00:50:32.424Z,14.93
2018-08-31T00:53:02.639Z,14.30
2018-08-31T00:55:32.439Z,16.23
2018-08-31T00:58:02.606Z,16.40
2018-08-31T01:00:32.663Z,15.10
2018-08-31T01:03:01.734Z,15.10
2018-08-31T01:05:31.256Z,16.87
2018-08-31T01:08:00.846Z,14.63
2018-08-31T01:10:34.052Z,16.80
2018-08-31T01:13:04.173Z,16.67
2018-08-31T01:15:33.187Z,16.63
2018-08-31T01:18:02.613Z,16.73
2018-08-31T01:20:32.560Z,15.50
2018-08-31T01:23:02.099Z,17.60
2018-08-31T01:25:33.601Z,20.33
2018-08-31T01:28:03.117Z,16.30
2018-08-31T01:30:32.755Z,15.53
2018-08-31T01:33:02.640Z,13.60
2018-08-31T01:35:34.155Z,13.63
2018-08-31T01:38:03.448Z,12.00
2018-08-31T01:40:33.034Z,12.80
2018-08-31T01:43:02.208Z,13.77
2018-08-31T01:45:31.709Z,12.30
2018-08-31T01:48:01.238Z,14.63
2018-08-31T01:50:30.877Z,16.57
2018-08-31T01:53:00.216Z,13.10
2018-08-31T01:55:32.012Z,12.13
2018-08-31T01:58:03.825Z,14.37
2018-08-31T02:00:33.230Z,13.33
2018-08-31T02:03:03.524Z,12.40
2018-08-31T02:05:40.434Z,13.93
2018-08-31T02:08:12.805Z,13.30
2018-08-31T02:10:42.335Z,12.37
2018-08-31T02:13:11.655Z,14.20
2018-08-31T02:15:41.116Z,14.07
2018-08-31T02:18:10.874Z,11.30
2018-08-31T02:20:40.583Z,11.63
2018-08-31T02:23:09.988Z,11.63
2018-08-31T02:25:39.662Z,12.27
2018-08-31T02:28:09.246Z,12.13
2018-08-31T02:30:38.843Z,12.27
2018-08-31T02:33:08.389Z,11.90
2018-08-31T02:35:37.842Z,13.47
2018-08-31T02:38:07.432Z,12.67
2018-08-31T02:40:36.833Z,14.03
2018-08-31T02:43:07.112Z,12.53
2018-08-31T02:45:36.639Z,13.30
2018-08-31T02:48:06.068Z,14.23
2018-08-31T02:50:36.605Z,12.20
2018-08-31T02:53:06.395Z,12.73
2018-08-31T02:55:35.888Z,12.80
2018-08-31T02:58:05.358Z,12.33
2018-08-31T03:00:34.524Z,10.83
2018-08-31T03:03:06.824Z,11.67
2018-08-31T03:05:36.377Z,12.03
2018-08-31T03:08:06.079Z,10.20
2018-08-31T03:10:35.463Z,13.23
2018-08-31T03:13:04.866Z,14.03
2018-08-31T03:15:34.309Z,11.23
2018-08-31T03:18:04.534Z,11.37
2018-08-31T03:20:33.696Z,10.00
2018-08-31T03:23:03.681Z,11.23
2018-08-31T03:26:05.219Z,10.93
2018-08-31T03:28:35.027Z,12.93
2018-08-31T03:36:35.785Z,12.70
2018-08-31T03:39:06.883Z,10.80
2018-08-31T03:41:38.141Z,10.57
2018-08-31T03:44:10.921Z,11.97
2018-08-31T03:46:40.357Z,11.00
2018-08-31T03:49:09.679Z,11.87
2018-08-31T03:51:39.334Z,13.33
2018-08-31T03:54:08.943Z,10.50
2018-08-31T03:56:38.616Z,10.33
2018-08-31T03:59:08.458Z,12.60
2018-08-31T04:01:37.915Z,12.00
2018-08-31T04:04:07.406Z,13.87
2018-08-31T04:06:36.570Z,11.70
2018-08-31T04:09:07.318Z,10.63
2018-08-31T04:11:36.604Z,12.07
2018-08-31T04:14:06.150Z,12.33
2018-08-31T04:16:35.624Z,12.53
2018-08-31T04:19:10.110Z,10.77
2018-08-31T04:21:39.437Z,10.83
2018-08-31T04:24:08.806Z,11.57
2018-08-31T04:26:38.372Z,11.10
2018-08-31T04:29:08.557Z,11.57
2018-08-31T04:31:38.416Z,10.50
2018-08-31T04:34:09.423Z,10.80
2018-08-31T04:36:39.048Z,14.77
2018-08-31T04:39:11.332Z,10.23
2018-08-31T04:41:40.945Z,12.93
2018-08-31T04:44:10.624Z,13.37
2018-08-31T04:46:40.552Z,11.77
2018-08-31T04:49:10.264Z,12.43
2018-08-31T04:51:39.804Z,12.33
2018-08-31T04:54:09.242Z,13.00
2018-08-31T04:56:38.745Z,10.43
2018-08-31T04:59:09.896Z,9.90
2018-08-31T05:01:40.567Z,10.70
2018-08-31T05:04:11.260Z,11.70
2018-08-31T05:09:20.460Z,9.70
2018-08-31T05:11:51.090Z,10.50
2018-08-31T05:14:21.064Z,12.60
2018-08-31T05:16:50.436Z,14.33
2018-08-31T05:19:19.958Z,13.70
2018-08-31T05:21:49.536Z,12.90
2018-08-31T05:24:19.272Z,14.23
2018-08-31T05:26:48.750Z,13.73
2018-08-31T05:29:18.213Z,13.13
2018-08-31T05:31:47.973Z,11.00
2018-08-31T05:34:17.653Z,13.67
2018-08-31T05:36:47.380Z,13.13
2018-08-31T05:39:16.874Z,11.50
2018-08-31T05:41:46.416Z,14.27
2018-08-31T05:44:15.971Z,11.47
2018-08-31T05:46:45.431Z,14.23
2018-08-31T05:49:15.486Z,14.50
2018-08-31T05:51:45.563Z,13.30
2018-08-31T05:54:15.257Z,14.80
2018-08-31T05:56:44.642Z,16.87
2018-08-31T05:59:14.736Z,14.17
2018-08-31T06:01:44.305Z,13.87
2018-08-31T06:04:13.630Z,17.67
2018-08-31T06:06:43.321Z,16.93
2018-08-31T06:09:12.660Z,27.07
2018-08-31T06:11:42.303Z,16.33
2018-08-31T06:14:11.676Z,13.67
2018-08-31T06:16:41.144Z,18.53
2018-08-31T06:19:10.673Z,15.13
2018-08-31T06:21:40.131Z,14.83
2018-08-31T06:24:09.626Z,17.67
2018-08-31T06:26:39.058Z,16.93
2018-08-31T06:29:08.626Z,16.40
2018-08-31T06:31:38.159Z,29.73
2018-08-31T06:34:07.747Z,18.10
2018-08-31T06:36:37.386Z,24.73
2018-08-31T06:39:08.219Z,19.37
2018-08-31T06:41:37.826Z,19.83
2018-08-31T06:44:07.803Z,25.77
2018-08-31T06:46:40.217Z,19.83
2018-08-31T06:49:10.463Z,15.07
2018-08-31T06:51:39.697Z,12.03
2018-08-31T06:54:09.095Z,13.67
2018-08-31T06:56:40.716Z,14.50
2018-08-31T06:59:27.877Z,12.23
2018-08-31T07:02:17.453Z,16.03
2018-08-31T07:04:47.610Z,12.07
2018-08-31T07:07:17.220Z,11.93
2018-08-31T07:09:46.965Z,15.17
2018-08-31T07:12:16.876Z,11.33
2018-08-31T07:14:46.371Z,11.73
2018-08-31T07:17:28.645Z,10.97
2018-08-31T07:19:59.742Z,16.53
2018-08-31T07:22:29.450Z,16.47
2018-08-31T07:24:59.621Z,12.83
2018-08-31T07:27:31.270Z,13.63
2018-08-31T07:30:00.761Z,13.50
2018-08-31T07:32:30.290Z,12.93
2018-08-31T07:35:24.030Z,14.40
2018-08-31T07:37:55.514Z,14.97
2018-08-31T07:40:25.473Z,14.40
2018-08-31T07:42:57.477Z,15.13
2018-08-31T07:45:26.991Z,10.83
2018-08-31T07:47:56.528Z,14.53
2018-08-31T07:50:27.596Z,15.30
2018-08-31T07:52:57.769Z,12.80
2018-08-31T07:55:27.091Z,24.37
2018-08-31T07:57:57.540Z,23.63
2018-08-31T08:00:27.814Z,26.50
2018-08-31T08:02:59.191Z,19.33
2018-08-31T08:05:31.388Z,22.87
2018-08-31T08:08:01.996Z,30.13
2018-08-31T08:10:31.507Z,24.77
2018-08-31T08:13:00.902Z,29.17
2018-08-31T08:15:32.544Z,25.07
2018-08-31T08:18:03.668Z,39.07
2018-08-31T08:20:32.782Z,29.37
2018-08-31T08:23:02.799Z,36.20
2018-08-31T08:25:32.126Z,28.80
2018-08-31T08:28:03.840Z,26.43
2018-08-31T08:30:46.253Z,20.23
2018-08-31T08:33:16.008Z,18.47
2018-08-31T08:35:47.895Z,18.80
2018-08-31T08:38:17.793Z,18.63
2018-08-31T08:40:48.199Z,13.97
2018-08-31T08:43:18.891Z,18.63
2018-08-31T08:45:48.283Z,13.23
2018-08-31T08:48:18.909Z,15.43
2018-08-31T08:50:48.848Z,13.20
2018-08-31T08:53:18.334Z,15.00
2018-08-31T08:55:48.240Z,16.70
2018-08-31T08:58:17.498Z,12.80
2018-08-31T09:00:47.092Z,15.20
2018-08-31T09:03:18.360Z,9.60
2018-08-31T09:05:49.670Z,15.30
2018-08-31T09:08:19.595Z,10.80
2018-08-31T09:10:49.909Z,12.70
2018-08-31T09:13:22.636Z,14.33
2018-08-31T09:15:52.916Z,12.10
2018-08-31T09:18:28.043Z,12.53
2018-08-31T09:20:58.282Z,15.90
2018-08-31T09:23:28.056Z,12.07
2018-08-31T09:26:00.882Z,23.47
2018-08-31T09:28:30.444Z,17.87
2018-08-31T09:31:00.100Z,15.50
2018-08-31T09:33:29.921Z,15.20
2018-08-31T09:35:59.286Z,13.63
2018-08-31T09:38:28.938Z,12.13
2018-08-31T09:40:58.398Z,10.63
2018-08-31T09:43:28.037Z,14.27
2018-08-31T09:45:58.543Z,13.63
2018-08-31T09:48:29.484Z,12.67
2018-08-31T09:50:59.237Z,9.53
2018-08-31T09:53:34.182Z,17.47
2018-08-31T09:56:07.956Z,16.33
2018-08-31T09:58:41.684Z,17.23
2018-08-31T10:01:17.920Z,11.20
2018-08-31T10:03:47.477Z,13.10
2018-08-31T10:06:16.974Z,9.17
2018-08-31T10:08:46.368Z,10.53
2018-08-31T10:11:15.964Z,7.37
2018-08-31T10:13:45.664Z,7.83
2018-08-31T10:16:15.366Z,9.63
2018-08-31T10:18:44.622Z,10.40
2018-08-31T10:21:14.319Z,8.00
2018-08-31T10:23:44.516Z,13.77
2018-08-31T10:26:14.203Z,8.23
2018-08-31T10:28:46.810Z,8.17
2018-08-31T10:31:16.334Z,6.20
2018-08-31T10:33:45.704Z,8.17
2018-08-31T10:36:19.573Z,11.63
2018-08-31T10:38:49.513Z,6.37
2018-08-31T10:41:19.149Z,8.03
2018-08-31T10:43:48.608Z,9.40
2018-08-31T10:46:19.270Z,9.13
2018-08-31T10:48:49.340Z,8.97
2018-08-31T10:51:19.310Z,7.80
2018-08-31T10:53:49.327Z,7.73
2018-08-31T10:56:18.849Z,6.17
2018-08-31T10:58:49.308Z,5.63
2018-08-31T11:01:19.393Z,7.33
2018-08-31T11:03:48.957Z,15.10
2018-08-31T11:06:18.593Z,6.50
2018-08-31T11:08:48.203Z,6.73
2018-08-31T11:11:17.608Z,10.40
2018-08-31T11:13:47.437Z,11.20
2018-08-31T11:16:17.020Z,18.37
2018-08-31T11:18:49.804Z,8.93
2018-08-31T11:21:20.419Z,9.57
2018-08-31T11:23:49.961Z,27.67
2018-08-31T11:26:19.521Z,34.17
2018-08-31T11:28:52.624Z,17.10
2018-08-31T11:31:30.182Z,16.23
2018-08-31T11:33:59.231Z,14.37
2018-08-31T11:36:28.865Z,20.20
2018-08-31T11:38:58.414Z,17.27
2018-08-31T11:41:28.756Z,14.27
2018-08-31T11:43:58.547Z,19.03
2018-08-31T11:46:29.857Z,11.60
2018-08-31T11:49:00.501Z,7.77
2018-08-31T11:51:30.503Z,8.97
2018-08-31T11:54:00.095Z,8.47
2018-08-31T11:56:30.360Z,9.07
2018-08-31T11:59:01.468Z,8.47
2018-08-31T12:01:32.858Z,9.93
2018-08-31T12:04:04.085Z,8.80
2018-08-31T12:06:34.047Z,11.03
2018-08-31T12:09:03.871Z,8.90
2018-08-31T12:11:34.255Z,6.07
2018-08-31T12:14:06.804Z,10.03
2018-08-31T12:16:38.286Z,14.70
2018-08-31T12:19:07.882Z,9.00
2018-08-31T12:21:37.123Z,5.73
2018-08-31T12:24:07.724Z,9.33
2018-08-31T12:26:37.734Z,8.03
2018-08-31T12:29:07.352Z,10.57
2018-08-31T12:31:36.831Z,5.00
2018-08-31T12:34:06.500Z,10.93
2018-08-31T12:36:36.330Z,6.53
2018-08-31T12:39:08.681Z,9.07
2018-08-31T12:41:40.097Z,12.07
2018-08-31T12:44:10.481Z,7.30
2018-08-31T12:46:43.175Z,9.07
2018-08-31T12:49:19.722Z,6.97
2018-08-31T12:51:50.096Z,12.37
2018-08-31T12:54:22.117Z,9.63
2018-08-31T12:56:51.867Z,12.97
2018-08-31T12:59:22.038Z,8.53
2018-08-31T13:01:52.031Z,7.17
2018-08-31T13:04:21.972Z,10.77
2018-08-31T13:06:56.548Z,12.07
2018-08-31T13:09:40.098Z,7.50
2018-08-31T13:12:17.747Z,10.87
2018-08-31T13:14:47.743Z,6.63
2018-08-31T13:17:17.409Z,11.23
2018-08-31T13:19:47.861Z,6.43
2018-08-31T13:22:17.643Z,8.07
2018-08-31T13:24:48.375Z,16.87
2018-08-31T13:27:18.812Z,5.73
2018-08-31T13:29:49.362Z,9.80
2018-08-31T13:32:19.646Z,10.37
2018-08-31T13:34:49.431Z,8.50
2018-08-31T13:37:19.712Z,7.57
2018-08-31T13:39:50.193Z,12.80
2018-08-31T13:42:20.272Z,9.33
2018-08-31T13:44:50.025Z,9.03
2018-08-31T13:47:20.901Z,10.03
2018-08-31T13:49:51.424Z,9.50
2018-08-31T13:52:22.002Z,7.13
2018-08-31T13:54:51.925Z,9.07
2018-08-31T13:57:22.852Z,11.03
2018-08-31T13:59:55.968Z,10.57
2018-08-31T14:02:27.240Z,7.83
2018-08-31T14:07:37.689Z,9.30
2018-08-31T14:10:09.866Z,9.23
2018-08-31T14:12:40.579Z,9.57
2018-08-31T14:15:11.093Z,10.50
2018-08-31T14:17:42.382Z,8.40
2018-08-31T14:20:12.837Z,6.97
2018-08-31T14:22:43.019Z,10.33
2018-08-31T14:25:14.168Z,10.37
2018-08-31T14:28:00.569Z,8.80
2018-08-31T14:30:35.333Z,7.27
2018-08-31T14:33:09.384Z,6.57
2018-08-31T14:35:41.087Z,6.70
2018-08-31T14:38:11.093Z,7.27
2018-08-31T14:40:42.169Z,8.13
2018-08-31T14:43:13.322Z,6.73
2018-08-31T14:45:44.333Z,6.20
2018-08-31T14:48:15.026Z,7.77
2018-08-31T14:50:45.497Z,6.60
2018-08-31T14:53:16.446Z,8.67
2018-08-31T14:55:47.542Z,6.33
2018-08-31T14:58:18.558Z,7.20
2018-08-31T15:00:49.186Z,7.77
2018-08-31T15:03:21.037Z,6.73
2018-08-31T15:05:51.848Z,7.63
2018-08-31T15:08:23.111Z,8.13
2018-08-31T15:10:54.165Z,8.70
2018-08-31T15:13:25.361Z,9.33
2018-08-31T15:15:57.231Z,7.07
2018-08-31T15:18:28.341Z,8.57
2018-08-31T15:21:00.361Z,8.80
2018-08-31T15:23:31.545Z,7.70
2018-08-31T15:26:02.461Z,9.60
2018-08-31T15:28:34.296Z,9.80
2018-08-31T15:31:04.838Z,8.33
2018-08-31T15:33:36.374Z,7.33
2018-08-31T15:36:07.382Z,6.63
2018-08-31T15:38:38.726Z,9.67
2018-08-31T15:41:10.879Z,6.77
2018-08-31T15:43:42.126Z,8.33
2018-08-31T15:46:14.271Z,9.07
2018-08-31T15:48:45.615Z,6.40
2018-08-31T15:51:18.014Z,8.37
2018-08-31T15:53:50.279Z,9.93
2018-08-31T15:56:21.671Z,8.93
2018-08-31T15:58:52.623Z,11.10
2018-08-31T16:01:24.114Z,7.37
2018-08-31T16:03:56.671Z,10.30
2018-08-31T16:06:27.722Z,9.23
2018-08-31T16:08:59.112Z,11.50
2018-08-31T16:11:31.340Z,11.13
2018-08-31T16:14:02.846Z,11.23
2018-08-31T16:16:34.663Z,8.70
2018-08-31T16:19:09.390Z,7.83
2018-08-31T16:21:41.371Z,9.90
2018-08-31T16:24:13.125Z,10.23
2018-08-31T16:26:44.580Z,14.50
2018-08-31T16:29:16.151Z,10.00
2018-08-31T16:31:45.772Z,7.70
2018-08-31T16:34:18.065Z,11.27
2018-08-31T16:36:51.204Z,7.93
2018-08-31T16:39:23.733Z,8.93
2018-08-31T16:41:55.474Z,8.93
2018-08-31T16:44:28.489Z,12.90
2018-08-31T16:47:00.730Z,7.37
2018-08-31T16:50:17.450Z,10.50
2018-08-31T16:52:48.895Z,7.30
2018-08-31T16:55:20.616Z,9.47
2018-08-31T16:57:52.160Z,10.67
2018-08-31T17:00:23.903Z,10.97
2018-08-31T17:02:55.625Z,11.40
2018-08-31T17:05:27.249Z,9.77
2018-08-31T17:07:59.669Z,10.57
2018-08-31T17:10:31.311Z,7.73
2018-08-31T17:13:03.176Z,11.00
2018-08-31T17:16:42.162Z,7.77
2018-08-31T17:19:16.215Z,11.27
2018-08-31T17:21:49.245Z,9.73
2018-08-31T17:24:21.351Z,7.83
2018-08-31T17:27:00.781Z,8.57
2018-08-31T17:30:29.322Z,8.10
2018-08-31T17:33:06.809Z,9.87
2018-08-31T17:35:43.603Z,8.30
2018-08-31T17:38:17.585Z,7.57
2018-08-31T17:41:16.535Z,7.87
2018-08-31T17:43:48.474Z,8.27
2018-08-31T17:46:22.972Z,10.00
2018-08-31T17:48:56.983Z,11.07
2018-08-31T17:51:31.000Z,10.43
2018-08-31T17:54:03.653Z,9.40
2018-08-31T17:56:36.463Z,9.03
2018-08-31T17:59:09.664Z,9.93
2018-08-31T18:01:42.344Z,10.80
2018-08-31T18:04:15.313Z,11.00
2018-08-31T18:06:47.761Z,7.93
2018-08-31T18:09:22.810Z,10.03
2018-08-31T18:12:10.265Z,10.80
2018-08-31T18:14:42.566Z,7.90
2018-08-31T18:17:14.868Z,9.63
2018-08-31T18:19:47.892Z,11.33
2018-08-31T18:22:22.933Z,10.43
2018-08-31T18:24:55.317Z,10.67
2018-08-31T18:27:27.636Z,8.90
2018-08-31T18:30:10.605Z,10.10
2018-08-31T18:32:42.559Z,12.70
2018-08-31T18:35:15.142Z,7.43
2018-08-31T18:37:47.212Z,12.10
2018-08-31T18:40:19.765Z,7.87
2018-08-31T18:42:51.849Z,13.83
2018-08-31T18:45:43.078Z,15.10
2018-08-31T18:48:15.891Z,10.93
2018-08-31T18:50:48.639Z,10.87
2018-08-31T18:53:20.889Z,10.33
2018-08-31T18:55:53.792Z,9.57
2018-08-31T18:58:27.747Z,12.57
2018-08-31T19:01:09.813Z,10.33
2018-08-31T19:04:12.044Z,11.53
2018-08-31T19:07:30.438Z,12.60
2018-08-31T19:10:14.690Z,8.17
2018-08-31T19:12:47.175Z,10.70
2018-08-31T19:15:19.433Z,8.83
2018-08-31T19:18:18.592Z,9.63
2018-08-31T19:20:50.728Z,15.30
2018-08-31T19:23:23.237Z,15.40
2018-08-31T19:25:56.868Z,12.43
2018-08-31T19:29:10.820Z,11.80
2018-08-31T19:31:44.204Z,12.40
2018-08-31T19:34:16.293Z,8.97
2018-08-31T19:36:48.760Z,10.67
2018-08-31T19:39:20.693Z,12.83
2018-08-31T19:41:52.485Z,10.97
2018-08-31T19:44:24.328Z,14.23
2018-08-31T19:46:56.466Z,12.27
2018-08-31T19:49:28.464Z,12.70
2018-08-31T19:52:00.233Z,8.87
2018-08-31T19:54:32.350Z,12.13
2018-08-31T19:57:04.885Z,7.67
2018-08-31T19:59:36.194Z,10.23
2018-08-31T20:02:07.807Z,10.97
2018-08-31T20:04:39.342Z,12.30
2018-08-31T20:07:10.901Z,14.70
2018-08-31T20:09:43.295Z,11.33
2018-08-31T20:12:14.586Z,13.93
2018-08-31T20:14:45.785Z,9.20
2018-08-31T20:17:16.432Z,13.87
2018-08-31T20:19:47.304Z,14.10
2018-08-31T20:22:17.857Z,11.37
2018-08-31T20:24:48.772Z,11.17
2018-08-31T20:27:21.503Z,10.53
2018-08-31T20:29:52.665Z,9.40
2018-08-31T20:32:23.491Z,12.17
2018-08-31T20:34:54.242Z,8.07
2018-08-31T20:37:24.971Z,12.27
2018-08-31T20:39:55.858Z,11.60
2018-08-31T20:42:27.024Z,11.10
2018-08-31T20:44:58.670Z,9.37
2018-08-31T20:47:29.269Z,9.13
2018-08-31T20:49:59.494Z,13.23
2018-08-31T20:52:31.463Z,15.27
2018-08-31T20:55:01.162Z,10.90
2018-08-31T20:57:30.938Z,11.57
2018-08-31T21:00:01.290Z,9.97
2018-08-31T21:02:31.753Z,13.50
2018-08-31T21:05:01.824Z,9.87
2018-08-31T21:07:32.673Z,9.23
2018-08-31T21:10:02.172Z,8.97
2018-08-31T21:12:32.003Z,8.33
2018-08-31T21:15:01.569Z,9.33
2018-08-31T21:17:31.332Z,8.97
2018-08-31T21:20:01.355Z,8.93
2018-08-31T21:22:31.173Z,11.87
2018-08-31T21:25:00.919Z,10.73
2018-08-31T21:27:30.520Z,7.90
2018-08-31T21:30:01.281Z,8.50
2018-08-31T21:32:31.402Z,10.70
2018-08-31T21:35:01.608Z,11.73
2018-08-31T21:37:33.204Z,10.43
2018-08-31T21:40:02.721Z,7.70
2018-08-31T21:42:31.946Z,12.03
2018-08-31T21:45:01.973Z,10.67
2018-08-31T21:47:31.894Z,9.60
2018-08-31T21:50:01.338Z,9.27
2018-08-31T21:52:31.484Z,11.47
2018-08-31T21:55:01.543Z,8.33
2018-08-31T21:57:30.731Z,9.83
2018-08-31T22:00:01.078Z,11.07
2018-08-31T22:02:31.410Z,11.03
2018-08-31T22:05:01.773Z,9.27
2018-08-31T22:07:31.284Z,8.77
2018-08-31T22:10:00.992Z,10.50
2018-08-31T22:12:31.169Z,11.07
2018-08-31T22:15:00.968Z,10.40
2018-08-31T22:17:31.247Z,8.93
2018-08-31T22:20:01.331Z,8.20
2018-08-31T22:22:31.190Z,10.20
2018-08-31T22:25:00.726Z,7.13
2018-08-31T22:27:31.051Z,9.87
2018-08-31T22:30:01.097Z,6.17
2018-08-31T22:32:30.399Z,8.90
2018-08-31T22:34:59.969Z,10.67
2018-08-31T22:37:29.506Z,9.80
2018-08-31T22:39:59.384Z,9.03
2018-08-31T22:42:28.965Z,8.40
2018-08-31T22:44:58.312Z,9.57
2018-08-31T22:47:27.769Z,10.93
2018-08-31T22:49:57.144Z,9.83
2018-08-31T22:52:26.698Z,9.50
2018-08-31T22:54:56.216Z,12.17
2018-08-31T22:57:25.510Z,11.17
2018-08-31T22:59:55.035Z,7.10
2018-08-31T23:02:24.446Z,7.50
2018-08-31T23:04:54.830Z,7.83
2018-08-31T23:07:29.378Z,6.90
2018-08-31T23:09:58.437Z,9.53
2018-08-31T23:12:27.872Z,6.70
2018-08-31T23:15:05.330Z,7.30
2018-08-31T23:17:36.212Z,9.17
2018-08-31T23:20:05.674Z,8.10
2018-08-31T23:22:34.897Z,8.27
2018-08-31T23:25:04.068Z,8.20
2018-08-31T23:27:33.611Z,7.90
2018-08-31T23:30:03.003Z,6.90
2018-08-31T23:32:32.756Z,8.63
2018-08-31T23:35:03.812Z,8.13
2018-08-31T23:37:33.089Z,8.80
2018-08-31T23:40:02.487Z,6.37
2018-08-31T23:42:31.897Z,7.40
2018-08-31T23:45:00.867Z,8.87
2018-08-31T23:47:32.521Z,8.50
2018-08-31T23:50:01.660Z,7.70
2018-08-31T23:52:31.541Z,6.77
2018-08-31T23:55:01.736Z,9.17
2018-08-31T23:57:31.367Z,9.00
